Terminal Aerodrome Forecast
Issued by NWS

Home | Current Version | Previous Version | Text Only | Print | Product List | Glossary On
Versions: 1 2 3 4 5 6 7 8 9 10 11 12 13 14 15 16 17 18
000
FTAK31 PAJN 192300
TAFAKT
TAF
PAKT 192334Z 2000/2024 14020G30KT P6SM -RA FEW014 BKN021 OVC050
      WS020/17040KT
     FM200200 14012KT P6SM -SHRA BKN025 OVC035
     FM200900 15015G25KT 6SM -SHRA BKN015 OVC025 WS020/16035KT
     FM201400 15010KT P6SM -SHRA SCT015 OVC025
     FM202100 14008KT P6SM -SHRA SCT025 OVC050
      AMD LTD TO CLD VIS AND WIND 2006/2015=

USA.gov is the U.S. government's official web portal to all federal, state and local government web resources and services.